Dunbarton, South Carolina
Current Conditions -  °F | °C
As of 10:15 PM on Monday 22 Dec 2014 (Local Time) from KBNL Reporting Station
Overcast Overcast  
Wind Chill: 44°   Ceiling: 200
Heat Index: 46°   Visibility: NA
Dew Point: 45°   Wind: 6mph
Humidity: 93%   Direction: 80°E
Pressure: 30.01"   Gusts: NA
Location:  33.2653°N, 81.6553°W
Report Text: KBNL 230315Z AUTO 08005KT OVC002 08/07 A3001 RMK AO2
Loading
Personal Weather Stations






























Interactive Weather Map New forecast layout! Learn more

10-Day Weather Forecast

Advertisements
Track Severe Weather on mobile